Time;durP1;ratioP1;P1;durP2;ratioP2;P2;SDS_P1;SDS_P2;PMS_P1;PMS_P2;Temp;Humidity;BMP_temperature;BMP_pressure;BME280_temperature;BME280_humidity;BME280_pressure;Samples;Min_cycle;Max_cycle;Signal;HPM_P1;HPM_P2
2022/12/31 00:00:37;;;;;;;9.13;2.30;;;;;;;10.39;100.00;100057.88;5008625;28;20407;-79
2022/12/31 00:03:07;;;;;;;7.65;2.60;;;;;;;10.42;100.00;100060.50;4978931;28;20053;-78
2022/12/31 00:05:36;;;;;;;12.88;2.55;;;;;;;10.42;100.00;100057.88;4992723;28;20045;-78
2022/12/31 00:08:03;;;;;;;6.30;2.20;;;;;;;10.44;100.00;100064.00;4998088;28;20054;-79
2022/12/31 00:10:38;;;;;;;7.72;2.20;;;;;;;10.45;100.00;100076.28;5000454;28;20085;-79
2022/12/31 00:13:08;;;;;;;13.77;3.10;;;;;;;10.47;100.00;100082.41;4994925;28;20129;-79
2022/12/31 00:15:36;;;;;;;8.65;2.80;;;;;;;10.49;100.00;100066.56;5019545;28;20538;-79
2022/12/31 00:18:05;;;;;;;11.68;2.40;;;;;;;10.49;100.00;100075.38;4977819;28;20052;-79
2022/12/31 00:20:38;;;;;;;11.27;2.60;;;;;;;10.48;100.00;100070.97;5005970;28;20045;-78
2022/12/31 00:23:08;;;;;;;12.40;3.10;;;;;;;10.49;100.00;100070.09;5014380;28;20041;-79
2022/12/31 00:25:36;;;;;;;9.15;2.80;;;;;;;10.50;100.00;100074.47;4999671;28;20403;-79
2022/12/31 00:28:04;;;;;;;9.45;2.95;;;;;;;10.52;100.00;100085.88;4996611;28;20049;-79
2022/12/31 00:30:33;;;;;;;12.73;3.20;;;;;;;10.53;100.00;100069.19;5007360;28;20507;-80
2022/12/31 00:33:01;;;;;;;12.70;3.05;;;;;;;10.54;100.00;100085.84;4974418;28;20503;-80
2022/12/31 00:35:28;;;;;;;9.70;2.17;;;;;;;10.56;100.00;100070.03;5006574;28;20065;-79
2022/12/31 00:37:55;;;;;;;12.20;3.05;;;;;;;10.57;100.00;100071.78;4982550;28;20072;-79
2022/12/31 00:40:23;;;;;;;11.82;2.97;;;;;;;10.57;100.00;100072.66;4986833;28;20046;-79
2022/12/31 00:42:50;;;;;;;12.60;2.75;;;;;;;10.58;100.00;100070.91;4986094;28;20051;-79
2022/12/31 00:45:18;;;;;;;8.38;2.85;;;;;;;10.59;100.00;100084.06;4981489;28;20042;-79
2022/12/31 00:47:45;;;;;;;7.13;2.30;;;;;;;10.61;100.00;100084.91;4989068;28;20057;-79
2022/12/31 00:50:12;;;;;;;11.05;2.88;;;;;;;10.64;100.00;100086.63;4969568;28;20061;-79
2022/12/31 00:52:40;;;;;;;10.38;2.35;;;;;;;10.65;100.00;100091.03;4992814;28;20137;-79
2022/12/31 00:55:08;;;;;;;13.02;2.85;;;;;;;10.65;100.00;100093.66;4968254;28;20054;-79
2022/12/31 00:57:35;;;;;;;13.68;3.13;;;;;;;10.64;100.00;100089.28;4979194;28;20034;-79
2022/12/31 01:00:05;;;;;;;9.70;3.58;;;;;;;10.64;100.00;100094.53;4979443;28;20068;-79
2022/12/31 01:02:33;;;;;;;12.02;3.35;;;;;;;10.65;100.00;100096.31;4999612;28;20045;-79
2022/12/31 01:05:01;;;;;;;14.18;3.30;;;;;;;10.63;100.00;100091.03;4931091;28;20061;-79
2022/12/31 01:07:29;;;;;;;13.88;2.70;;;;;;;10.63;100.00;100090.19;5019691;28;20042;-79
2022/12/31 01:09:56;;;;;;;22.02;3.22;;;;;;;10.63;100.00;100101.59;4995650;28;20068;-79
2022/12/31 01:12:24;;;;;;;12.38;3.55;;;;;;;10.64;100.00;100102.44;5000448;28;20060;-79
2022/12/31 01:14:51;;;;;;;10.73;3.20;;;;;;;10.63;100.00;100098.09;4995789;28;20042;-79
2022/12/31 01:17:19;;;;;;;15.98;3.95;;;;;;;10.63;100.00;100103.34;4992390;28;20057;-79
2022/12/31 01:19:46;;;;;;;20.25;3.45;;;;;;;10.61;100.00;100105.13;4967462;28;20053;-79
2022/12/31 01:22:13;;;;;;;18.25;4.25;;;;;;;10.60;100.00;100098.09;4967254;28;20053;-79
2022/12/31 01:24:41;;;;;;;16.25;3.08;;;;;;;10.59;100.00;100101.63;4975857;28;20050;-79
2022/12/31 01:27:08;;;;;;;13.27;3.03;;;;;;;10.58;100.00;100099.88;4976348;28;20049;-79
2022/12/31 01:29:36;;;;;;;12.40;3.67;;;;;;;10.57;100.00;100100.75;5002593;28;20050;-79
2022/12/31 01:32:04;;;;;;;14.65;3.30;;;;;;;10.56;100.00;100109.56;4979921;28;20051;-78
2022/12/31 01:34:31;;;;;;;20.13;4.13;;;;;;;10.56;100.00;100104.28;4998696;28;20038;-78
2022/12/31 01:36:58;;;;;;;16.65;3.50;;;;;;;10.53;100.00;100100.78;4979074;28;20034;-78
2022/12/31 01:39:26;;;;;;;15.38;3.42;;;;;;;10.52;100.00;100103.44;5004978;28;20049;-77
2022/12/31 01:41:53;;;;;;;14.13;4.10;;;;;;;10.52;100.00;100108.72;4981450;28;20057;-76
2022/12/31 01:44:23;;;;;;;21.63;3.95;;;;;;;10.50;100.00;100108.72;5012215;28;20054;-79
2022/12/31 01:46:55;;;;;;;18.23;3.88;;;;;;;10.51;100.00;100118.38;5000960;28;20533;-79
2022/12/31 01:49:40;;;;;;;15.88;3.20;;;;;;;10.50;100.00;100124.53;4998776;28;20050;-79
2022/12/31 01:52:21;;;;;;;16.17;3.28;;;;;;;10.50;100.00;100137.69;4979373;28;20042;-79
2022/12/31 01:55:03;;;;;;;10.25;3.40;;;;;;;10.49;100.00;100133.31;5010069;28;20076;-79
2022/12/31 01:57:31;;;;;;;14.10;4.40;;;;;;;10.49;100.00;100129.78;4986754;28;20038;-78
2022/12/31 02:00:00;;;;;;;20.33;4.72;;;;;;;10.48;100.00;100131.56;4999589;28;20064;-78
2022/12/31 02:02:31;;;;;;;11.88;4.18;;;;;;;10.47;100.00;100127.19;4999166;28;20419;-79
2022/12/31 02:05:02;;;;;;;19.15;5.20;;;;;;;10.47;100.00;100126.31;4986542;28;20796;-78
2022/12/31 02:07:30;;;;;;;19.67;4.85;;;;;;;10.45;100.00;100131.59;4976275;28;20042;-78
2022/12/31 02:09:59;;;;;;;16.58;4.32;;;;;;;10.45;100.00;100131.59;5007895;28;20046;-78
2022/12/31 02:12:26;;;;;;;14.88;4.00;;;;;;;10.43;100.00;100129.84;5001710;28;20049;-78
2022/12/31 02:14:54;;;;;;;16.67;4.07;;;;;;;10.43;100.00;100124.59;4951793;28;20054;-78
2022/12/31 02:17:34;;;;;;;15.48;4.10;;;;;;;10.41;100.00;100131.63;4988689;28;20051;-78
2022/12/31 02:20:46;;;;;;;16.15;3.75;;;;;;;10.40;100.00;100135.16;4991485;28;20049;-79
2022/12/31 02:23:44;;;;;;;17.52;4.28;;;;;;;10.39;100.00;100136.03;4954938;28;20049;-78
2022/12/31 02:26:26;;;;;;;19.58;3.65;;;;;;;10.37;100.00;100133.41;5002674;28;20053;-79
2022/12/31 02:29:30;;;;;;;17.98;3.50;;;;;;;10.35;100.00;100119.38;4992398;28;20053;-78
2022/12/31 02:32:12;;;;;;;10.57;3.58;;;;;;;10.34;100.00;100126.41;5009882;28;20046;-79
2022/12/31 02:34:51;;;;;;;15.77;3.90;;;;;;;10.34;100.00;100101.84;4998152;28;20045;-79
2022/12/31 02:37:21;;;;;;;8.80;3.60;;;;;;;10.33;100.00;100113.25;5001166;28;20034;-79
2022/12/31 02:39:50;;;;;;;8.45;3.50;;;;;;;10.31;100.00;100107.13;4964516;28;20053;-80
2022/12/31 02:42:17;;;;;;;14.18;4.03;;;;;;;10.30;100.00;100111.53;5008326;28;20042;-78
2022/12/31 02:44:46;;;;;;;9.63;3.88;;;;;;;10.32;100.00;100116.75;4992643;28;20050;-77
2022/12/31 02:47:29;;;;;;;9.25;3.83;;;;;;;10.31;100.00;100113.25;4992645;28;20074;-77
2022/12/31 02:50:15;;;;;;;11.45;4.25;;;;;;;10.31;100.00;100107.13;5004778;28;20399;-79
2022/12/31 02:53:04;;;;;;;10.40;4.53;;;;;;;10.30;100.00;100103.63;4970196;28;20045;-80
2022/12/31 02:55:43;;;;;;;10.80;4.45;;;;;;;10.29;100.00;100093.94;5001046;28;20396;-80
2022/12/31 03:04:31;;;;;;;8.55;3.47;;;;;;;10.25;100.00;100113.28;5001250;28;20042;-80
2022/12/31 03:07:04;;;;;;;11.38;4.20;;;;;;;10.24;100.00;100108.00;4993811;28;20061;-79
2022/12/31 03:09:35;;;;;;;12.75;3.88;;;;;;;10.22;100.00;100099.25;4971911;28;20042;-80
2022/12/31 03:14:51;;;;;;;9.80;3.72;;;;;;;10.20;100.00;100104.53;4989509;28;20554;-80
2022/12/31 03:17:19;;;;;;;10.75;4.07;;;;;;;10.19;100.00;100107.16;5000791;28;20430;-79
2022/12/31 03:22:35;;;;;;;5.50;3.55;;;;;;;10.16;100.00;100094.91;5011398;28;20050;-79
2022/12/31 03:28:08;;;;;;;5.25;3.63;;;;;;;10.15;100.00;100112.47;5002339;28;20046;-79
2022/12/31 03:30:38;;;;;;;8.98;3.55;;;;;;;10.14;100.00;100107.22;4980890;28;20046;-79
2022/12/31 03:33:06;;;;;;;11.63;3.55;;;;;;;10.14;100.00;100118.59;4978572;28;20057;-79
2022/12/31 03:35:36;;;;;;;8.52;3.95;;;;;;;10.13;100.00;100108.97;4991906;28;20068;-79
2022/12/31 03:38:04;;;;;;;8.45;3.70;;;;;;;10.12;100.00;100099.31;4988207;28;20046;-79
2022/12/31 03:40:35;;;;;;;4.40;2.63;;;;;;;10.13;100.00;100103.72;4951297;28;20404;-79
2022/12/31 03:43:03;;;;;;;10.68;2.70;;;;;;;10.12;100.00;100091.41;5003623;28;20551;-79
2022/12/31 03:45:30;;;;;;;8.10;2.92;;;;;;;10.12;100.00;100095.81;4988685;28;20050;-79
2022/12/31 03:47:58;;;;;;;9.75;3.40;;;;;;;10.12;100.00;100093.19;4990043;28;20064;-79
2022/12/31 03:50:26;;;;;;;8.98;2.63;;;;;;;10.11;100.00;100081.78;4989387;28;20049;-79
2022/12/31 03:52:53;;;;;;;6.15;2.35;;;;;;;10.11;100.00;100099.31;5006959;28;20061;-80
2022/12/31 03:55:21;;;;;;;5.60;2.47;;;;;;;10.09;100.00;100102.00;4970874;28;20057;-79
2022/12/31 03:57:48;;;;;;;8.38;2.60;;;;;;;10.09;100.00;100101.09;4987907;28;20046;-79
2022/12/31 04:00:18;;;;;;;5.43;2.40;;;;;;;10.08;100.00;100100.22;4978446;28;20053;-79
2022/12/31 04:02:47;;;;;;;3.67;2.08;;;;;;;10.07;100.00;100106.34;4997727;28;20054;-79
2022/12/31 04:05:16;;;;;;;8.20;3.10;;;;;;;10.05;100.00;100104.63;4972746;28;20408;-79
2022/12/31 04:07:45;;;;;;;5.38;2.20;;;;;;;10.03;100.00;100098.50;4991600;28;20050;-79
2022/12/31 04:10:14;;;;;;;4.63;1.77;;;;;;;10.01;100.00;100093.25;4988724;28;20042;-79
2022/12/31 04:12:43;;;;;;;5.47;1.77;;;;;;;9.99;100.00;100108.19;4972883;28;20503;-79
2022/12/31 04:15:15;;;;;;;4.60;2.20;;;;;;;9.96;100.00;100105.56;5009955;28;20042;-79
2022/12/31 04:17:43;;;;;;;8.30;3.53;;;;;;;9.95;100.00;100111.72;4993360;28;20042;-79
2022/12/31 04:20:12;;;;;;;5.40;2.08;;;;;;;9.93;100.00;100110.84;4990090;28;20046;-79
2022/12/31 04:22:39;;;;;;;8.43;2.28;;;;;;;9.91;100.00;100108.22;5009888;28;20487;-79
2022/12/31 04:25:11;;;;;;;5.78;1.88;;;;;;;9.89;100.00;100112.63;5006630;28;20053;-79
2022/12/31 04:27:40;;;;;;;2.28;1.65;;;;;;;9.88;100.00;100125.78;4955507;28;20049;-79
2022/12/31 04:30:09;;;;;;;7.13;1.60;;;;;;;9.88;100.00;100133.69;5005821;28;20037;-79
2022/12/31 04:32:36;;;;;;;5.70;1.50;;;;;;;9.87;100.00;100126.69;4999092;28;20041;-79
2022/12/31 04:35:04;;;;;;;2.58;1.17;;;;;;;9.85;100.00;100134.59;4986524;28;21515;-79
2022/12/31 04:37:31;;;;;;;3.50;1.20;;;;;;;9.85;100.00;100138.94;5005544;28;20049;-79
2022/12/31 04:39:59;;;;;;;5.68;1.58;;;;;;;9.82;100.00;100142.47;4975846;28;20041;-79
2022/12/31 04:42:34;;;;;;;2.50;1.38;;;;;;;9.83;100.00;100138.09;4972190;28;20045;-79
2022/12/31 04:45:01;;;;;;;3.72;1.77;;;;;;;9.81;100.00;100130.22;4974568;28;20053;-79
2022/12/31 04:47:28;;;;;;;3.00;1.20;;;;;;;9.80;100.00;100127.59;4996396;28;20582;-79
2022/12/31 04:49:56;;;;;;;2.58;1.30;;;;;;;9.80;100.00;100117.94;4969752;28;20041;-79
2022/12/31 04:52:23;;;;;;;6.63;1.30;;;;;;;9.79;100.00;100110.91;5007143;28;20057;-79
2022/12/31 04:54:50;;;;;;;5.53;1.65;;;;;;;9.78;100.00;100111.81;4985966;28;20050;-79
2022/12/31 04:57:18;;;;;;;6.47;1.20;;;;;;;9.78;100.00;100118.84;4992244;28;20057;-79
2022/12/31 04:59:45;;;;;;;4.75;1.10;;;;;;;9.76;100.00;100109.19;4953447;28;20053;-79
2022/12/31 05:02:14;;;;;;;2.92;1.42;;;;;;;9.75;100.00;100109.19;4985680;28;20030;-79
2022/12/31 05:04:42;;;;;;;3.05;1.50;;;;;;;9.75;100.00;100115.34;4959053;28;20041;-79
2022/12/31 05:07:10;;;;;;;4.22;1.60;;;;;;;9.75;100.00;100128.50;4963401;28;20054;-79
2022/12/31 05:09:37;;;;;;;2.80;1.40;;;;;;;9.75;100.00;100138.13;4984036;28;20041;-79
2022/12/31 05:12:05;;;;;;;4.50;1.38;;;;;;;9.76;100.00;100134.63;4994341;28;20045;-78
2022/12/31 05:14:32;;;;;;;5.20;1.60;;;;;;;9.74;100.00;100132.00;4969582;28;20503;-79
2022/12/31 05:16:59;;;;;;;3.90;1.30;;;;;;;9.74;100.00;100136.41;5009190;28;20045;-79
2022/12/31 05:19:27;;;;;;;3.15;1.27;;;;;;;9.73;100.00;100134.63;4983173;28;20050;-79
2022/12/31 05:24:40;;;;;;;3.05;1.45;;;;;;;9.70;100.00;100135.53;4995765;28;20057;-79
2022/12/31 05:27:08;;;;;;;3.85;1.63;;;;;;;9.68;100.00;100129.41;4979835;28;20062;-79
2022/12/31 05:29:36;;;;;;;7.43;3.97;;;;;;;9.67;100.00;100119.75;4972282;28;20038;-79
2022/12/31 05:32:04;;;;;;;2.20;1.25;;;;;;;9.66;100.00;100125.00;4989490;28;20076;-79
2022/12/31 05:34:31;;;;;;;4.80;1.58;;;;;;;9.65;100.00;100116.25;4998741;28;20046;-79
2022/12/31 05:36:58;;;;;;;6.07;1.58;;;;;;;9.63;100.00;100110.13;4988844;28;20446;-79
2022/12/31 05:39:26;;;;;;;5.72;1.92;;;;;;;9.62;100.00;100102.25;4968669;28;20049;-79
2022/12/31 05:41:53;;;;;;;5.63;1.95;;;;;;;9.61;100.00;100095.25;4995715;28;20054;-79
2022/12/31 05:44:20;;;;;;;2.92;1.58;;;;;;;9.60;100.00;100110.13;4956762;28;20054;-79
2022/12/31 05:46:48;;;;;;;4.53;1.55;;;;;;;9.58;100.00;100114.53;5007350;28;20061;-79
2022/12/31 05:49:15;;;;;;;4.18;1.60;;;;;;;9.57;100.00;100102.28;4996435;28;20052;-79
2022/12/31 05:51:43;;;;;;;4.65;1.77;;;;;;;9.56;100.00;100113.66;4996420;28;20054;-79
2022/12/31 05:54:10;;;;;;;3.47;1.55;;;;;;;9.55;100.00;100115.44;4989387;28;20037;-79
2022/12/31 05:56:37;;;;;;;4.32;1.65;;;;;;;9.54;100.00;100128.56;5003331;28;20046;-79
2022/12/31 05:59:05;;;;;;;5.63;1.75;;;;;;;9.53;100.00;100124.22;4958241;28;20033;-79
2022/12/31 06:01:33;;;;;;;4.75;1.80;;;;;;;9.53;100.00;100130.34;4978173;28;20050;-79
2022/12/31 06:04:00;;;;;;;5.15;1.80;;;;;;;9.54;100.00;100139.09;5008095;28;20057;-79
2022/12/31 06:06:27;;;;;;;4.55;1.80;;;;;;;9.54;100.00;100158.38;4989401;28;20085;-78
2022/12/31 06:08:55;;;;;;;8.52;2.20;;;;;;;9.54;100.00;100144.34;5000982;28;20060;-79
2022/12/31 06:11:22;;;;;;;3.67;1.55;;;;;;;9.55;100.00;100140.88;4975658;28;20042;-80
2022/12/31 06:13:50;;;;;;;2.95;1.85;;;;;;;9.56;100.00;100155.75;5011554;28;20141;-79
2022/12/31 06:16:17;;;;;;;5.28;1.73;;;;;;;9.56;100.00;100161.00;4972000;28;20050;-79
2022/12/31 06:18:49;;;;;;;4.07;1.80;;;;;;;9.56;100.00;100158.38;5012018;28;20053;-79
2022/12/31 06:21:18;;;;;;;3.42;1.90;;;;;;;9.56;100.00;100176.78;4997459;28;20049;-79
2022/12/31 06:23:46;;;;;;;5.88;2.00;;;;;;;9.56;100.00;100179.41;4987820;28;20078;-79
2022/12/31 06:26:14;;;;;;;6.40;2.22;;;;;;;9.57;100.00;100181.19;4995504;28;20061;-79
2022/12/31 06:28:42;;;;;;;3.42;1.98;;;;;;;9.56;100.00;100174.16;4994800;28;20057;-79
2022/12/31 06:31:12;;;;;;;5.03;1.95;;;;;;;9.55;100.00;100172.44;4974305;28;20053;-79
2022/12/31 06:33:41;;;;;;;5.20;1.60;;;;;;;9.55;100.00;100182.94;5009608;28;20065;-79
2022/12/31 06:36:12;;;;;;;3.58;1.42;;;;;;;9.53;100.00;100182.09;4990259;28;20058;-79
2022/12/31 06:38:40;;;;;;;3.10;1.17;;;;;;;9.50;100.00;100174.19;4990827;28;20050;-79
2022/12/31 06:41:13;;;;;;;3.63;1.67;;;;;;;9.45;100.00;100182.09;4985635;28;20041;-79
2022/12/31 06:43:42;;;;;;;5.15;1.17;;;;;;;9.40;100.00;100183.88;5007724;28;20453;-79
2022/12/31 06:46:14;;;;;;;2.78;1.10;;;;;;;9.32;100.00;100176.00;4953434;28;20046;-79
2022/12/31 06:48:43;;;;;;;2.33;0.85;;;;;;;9.25;100.00;100176.88;5010916;28;20045;-80
2022/12/31 06:51:16;;;;;;;6.53;0.95;;;;;;;9.22;100.00;100174.25;4996890;28;20052;-79
2022/12/31 06:53:46;;;;;;;2.35;1.00;;;;;;;9.19;100.00;100174.28;5013083;28;20153;-79
2022/12/31 06:56:21;;;;;;;1.65;0.77;;;;;;;9.15;100.00;100172.53;4981221;28;20053;-79
2022/12/31 06:58:57;;;;;;;2.80;1.00;;;;;;;9.14;100.00;100171.63;5006149;28;20054;-79
2022/12/31 07:02:02;;;;;;;2.33;1.02;;;;;;;9.13;100.00;100180.41;4971313;28;20771;-79
2022/12/31 07:04:44;;;;;;;2.85;1.40;;;;;;;9.15;100.00;100169.91;5008510;28;20042;-79
2022/12/31 07:07:18;;;;;;;3.58;1.10;;;;;;;9.15;100.00;100154.13;4987729;28;20422;-79
2022/12/31 07:10:09;;;;;;;1.92;1.10;;;;;;;9.15;100.00;100156.75;4993052;28;20037;-79
2022/12/31 07:12:58;;;;;;;6.80;1.60;;;;;;;9.14;100.00;100145.34;4993213;28;20056;-79
2022/12/31 07:15:37;;;;;;;2.35;1.15;;;;;;;9.15;100.00;100146.25;5006792;28;20057;-78
2022/12/31 07:18:59;;;;;;;3.80;1.20;;;;;;;9.16;100.00;100150.63;4967596;28;20046;-79
2022/12/31 07:21:34;;;;;;;8.32;1.85;;;;;;;9.16;100.00;100169.00;4969217;28;20424;-79
2022/12/31 07:24:05;;;;;;;6.20;1.88;;;;;;;9.16;100.00;100184.78;4978582;28;20054;-79
2022/12/31 07:26:47;;;;;;;;;;;;;;;9.16;100.00;100174.28;4979732;28;20049;-79
2022/12/31 07:29:46;;;;;;;6.22;1.70;;;;;;;9.15;100.00;100156.75;4995647;28;20654;-80
2022/12/31 07:32:31;;;;;;;7.90;1.60;;;;;;;9.14;100.00;100165.50;4968558;28;20042;-79
2022/12/31 07:35:17;;;;;;;6.00;1.48;;;;;;;9.13;100.00;100177.78;4997228;28;20488;-79
2022/12/31 07:37:57;;;;;;;2.30;1.42;;;;;;;9.12;100.00;100175.16;5010709;28;20106;-79
2022/12/31 07:40:58;;;;;;;1.52;1.00;;;;;;;9.10;100.00;100190.94;4978780;28;20045;-79
2022/12/31 07:43:59;;;;;;;6.13;1.20;;;;;;;9.08;100.00;100186.56;5010159;28;20482;-79
2022/12/31 07:46:50;;;;;;;3.42;2.05;;;;;;;9.08;100.00;100171.66;4965837;28;20069;-79
2022/12/31 07:49:18;;;;;;;4.30;1.90;;;;;;;9.10;100.00;100177.78;4999695;28;20045;-79
2022/12/31 07:51:46;;;;;;;5.95;2.60;;;;;;;9.11;100.00;100174.28;4988805;28;20038;-79
2022/12/31 07:54:14;;;;;;;5.53;3.05;;;;;;;9.13;100.00;100169.00;4988001;28;20403;-79
2022/12/31 07:56:42;;;;;;;6.25;3.15;;;;;;;9.14;100.00;100171.63;4986098;28;20046;-79
2022/12/31 07:59:43;;;;;;;5.47;2.95;;;;;;;9.17;100.00;100189.19;4973172;28;20045;-79
2022/12/31 08:02:23;;;;;;;3.80;3.35;;;;;;;9.21;100.00;100197.94;4984371;28;20506;-79
2022/12/31 08:05:06;;;;;;;3.27;2.97;;;;;;;9.24;100.00;100197.91;4985572;28;20057;-79
2022/12/31 08:07:44;;;;;;;5.60;3.30;;;;;;;9.27;100.00;100187.41;5017515;28;20088;-80
2022/12/31 08:10:33;;;;;;;3.65;3.10;;;;;;;9.29;100.00;100183.88;4997491;28;20049;-80
2022/12/31 08:13:02;;;;;;;4.10;2.95;;;;;;;9.30;100.00;100175.13;4959725;28;20057;-79
2022/12/31 08:15:30;;;;;;;5.30;3.30;;;;;;;9.31;100.00;100179.50;4998086;28;20038;-80
2022/12/31 08:17:57;;;;;;;5.68;2.67;;;;;;;9.32;100.00;100194.41;4972237;28;22108;-79
2022/12/31 08:20:26;;;;;;;4.93;2.72;;;;;;;9.34;100.00;100158.47;5000213;28;20040;-79
2022/12/31 08:23:24;;;;;;;3.50;2.42;;;;;;;9.33;100.00;100161.94;5002135;28;20055;-79
2022/12/31 08:26:07;;;;;;;2.60;2.40;;;;;;;9.35;100.00;100154.06;4998908;28;20399;-79
2022/12/31 08:28:38;;;;;;;3.40;2.58;;;;;;;9.34;100.00;100144.44;4981209;28;20112;-80
2022/12/31 08:31:19;;;;;;;6.57;3.28;;;;;;;9.35;100.00;100140.91;4998620;28;20042;-79
2022/12/31 08:34:04;;;;;;;4.35;2.63;;;;;;;9.35;100.00;100148.81;4976462;28;20058;-80
2022/12/31 08:37:14;;;;;;;3.10;2.70;;;;;;;9.35;100.00;100154.94;5005186;28;20038;-79
2022/12/31 08:40:07;;;;;;;4.03;3.05;;;;;;;9.36;100.00;100150.56;4964531;28;20053;-79
2022/12/31 08:43:12;;;;;;;3.15;2.90;;;;;;;9.36;100.00;100145.31;5000559;28;20053;-79
2022/12/31 08:45:51;;;;;;;4.30;3.80;;;;;;;9.38;100.00;100147.94;4995394;28;20057;-80
2022/12/31 08:48:38;;;;;;;7.35;4.95;;;;;;;9.39;100.00;100147.06;5010381;28;20049;-79
2022/12/31 08:51:20;;;;;;;5.85;5.25;;;;;;;9.40;100.00;100139.16;5005270;28;20049;-79
2022/12/31 08:53:49;;;;;;;4.60;3.42;;;;;;;9.40;100.00;100133.91;5003393;28;20515;-80
2022/12/31 08:56:55;;;;;;;2.80;2.60;;;;;;;9.42;100.00;100144.41;4990101;28;20046;-79
2022/12/31 08:59:57;;;;;;;4.35;3.95;;;;;;;9.45;100.00;100144.38;4995722;28;20045;-78
2022/12/31 09:02:51;;;;;;;5.00;4.35;;;;;;;9.46;100.00;100135.63;4996743;28;20045;-79
2022/12/31 09:05:31;;;;;;;6.68;4.82;;;;;;;9.49;100.00;100143.50;4963010;28;20400;-78
2022/12/31 09:08:20;;;;;;;4.28;3.88;;;;;;;9.52;100.00;100136.47;5020395;28;20165;-78
2022/12/31 09:11:02;;;;;;;4.55;4.07;;;;;;;9.55;100.00;100132.97;4987939;28;20039;-79
2022/12/31 09:13:54;;;;;;;3.80;3.53;;;;;;;9.60;100.00;100144.31;4985493;28;20053;-79
2022/12/31 09:16:52;;;;;;;4.20;3.45;;;;;;;9.64;100.00;100156.63;4983775;28;20057;-79
2022/12/31 09:19:19;;;;;;;3.78;3.47;;;;;;;9.67;100.00;100146.06;4992103;28;20050;-78
2022/12/31 09:21:47;;;;;;;3.25;3.00;;;;;;;9.72;100.00;100165.34;4959156;28;20523;-79
2022/12/31 09:24:15;;;;;;;3.55;3.28;;;;;;;9.78;100.00;100160.94;4991065;28;20051;-78
2022/12/31 09:26:42;;;;;;;2.80;2.55;;;;;;;9.81;100.00;100148.66;4963918;28;20049;-78
2022/12/31 09:29:13;;;;;;;3.20;3.00;;;;;;;9.89;100.00;100144.22;4990649;28;20049;-78
2022/12/31 09:31:52;;;;;;;2.58;2.42;;;;;;;9.97;100.00;100149.44;4971755;28;20052;-78
2022/12/31 09:34:28;;;;;;;2.67;2.28;;;;;;;10.06;100.00;100136.22;4995488;28;20053;-78
2022/12/31 09:37:01;;;;;;;2.25;2.10;;;;;;;10.17;100.00;100145.78;4967491;28;20091;-78
2022/12/31 09:39:36;;;;;;;4.18;3.70;;;;;;;10.26;100.00;100129.94;4994730;28;20064;-78
2022/12/31 09:42:17;;;;;;;3.55;3.25;;;;;;;10.33;100.00;100139.59;4988680;28;20038;-78
2022/12/31 09:45:03;;;;;;;4.43;3.60;;;;;;;10.42;100.00;100144.78;5005712;28;20050;-79
2022/12/31 09:47:42;;;;;;;3.28;2.97;;;;;;;10.48;100.00;100138.59;4987644;28;20503;-79
2022/12/31 09:50:28;;;;;;;3.33;3.03;;;;;;;10.54;100.00;100139.41;5002898;28;20041;-78
2022/12/31 09:53:24;;;;;;;6.10;4.13;;;;;;;10.60;100.00;100134.97;4951584;28;20053;-79
2022/12/31 09:55:56;;;;;;;10.07;7.78;;;;;;;10.65;100.00;100146.38;5006614;28;20034;-78
2022/12/31 09:58:54;;;;;;;6.07;4.72;;;;;;;10.66;100.00;100151.63;4994071;28;20057;-78
2022/12/31 10:01:30;;;;;;;4.55;3.47;;;;;;;10.72;100.00;100137.53;5005098;28;20050;-79
2022/12/31 10:04:27;;;;;;;4.63;2.83;;;;;;;10.76;100.00;100149.78;4991754;28;20622;-79
2022/12/31 10:07:31;;;;;;;3.97;2.05;;;;;;;10.82;100.00;100160.25;4966742;28;20100;-78
2022/12/31 10:10:08;;;;;;;5.40;2.50;;;;;;;10.88;100.00;100162.84;4999112;28;20672;-78
2022/12/31 10:12:51;;;;;;;3.63;2.92;;;;;;;10.93;100.00;100160.19;4986244;28;20046;-78
2022/12/31 10:15:47;;;;;;;2.88;2.35;;;;;;;10.96;100.00;100154.00;4989572;28;20041;-79
2022/12/31 10:18:39;;;;;;;3.53;1.52;;;;;;;10.98;100.00;100163.63;4996124;28;20052;-80
2022/12/31 10:21:45;;;;;;;1.88;1.50;;;;;;;11.02;100.00;100157.47;4990929;28;20042;-78
2022/12/31 10:24:12;;;;;;;2.10;1.90;;;;;;;11.11;100.00;100164.38;4969249;28;20056;-79
2022/12/31 10:26:49;;;;;;;5.90;1.30;;;;;;;11.15;100.00;100163.47;4994759;28;20710;-81
2022/12/31 10:29:24;;;;;;;1.60;1.02;;;;;;;11.25;100.00;100146.66;4991251;28;20038;-78
2022/12/31 10:32:11;;;;;;;5.50;3.60;;;;;;;11.31;100.00;100170.34;4996854;28;20046;-78
2022/12/31 10:34:41;;;;;;;2.40;1.55;;;;;;;11.41;100.00;100167.59;4989049;28;20046;-79
2022/12/31 10:37:42;;;;;;;3.58;1.20;;;;;;;11.49;100.00;100176.28;4996909;28;20065;-80
2022/12/31 10:40:37;;;;;;;2.28;1.48;;;;;;;11.59;100.00;100174.44;4968393;28;20052;-79
2022/12/31 10:43:49;;;;;;;4.32;1.63;;;;;;;11.59;100.00;100188.50;5003973;28;20045;-79
2022/12/31 10:46:45;;;;;;;3.83;1.50;;;;;;;11.66;100.00;100186.66;4969097;28;20058;-79
2022/12/31 10:49:31;;;;;;;16.55;2.50;;;;;;;11.77;100.00;100178.63;4990738;28;20042;-79
2022/12/31 10:52:26;;;;;;;3.28;1.15;;;;;;;11.88;100.00;100190.78;4991358;28;20073;-79
2022/12/31 10:54:56;;;;;;;5.93;1.60;;;;;;;11.97;100.00;100170.47;4967576;28;20049;-80
2022/12/31 10:57:42;;;;;;;5.13;1.50;;;;;;;12.04;100.00;100169.47;4995909;28;20054;-79
2022/12/31 11:00:32;;;;;;;8.43;1.55;;;;;;;12.16;100.00;100176.38;5006989;28;20067;-80
2022/12/31 11:03:33;;;;;;;5.93;2.05;;;;;;;12.21;100.00;100166.59;4990818;28;20497;-79
2022/12/31 11:06:38;;;;;;;4.20;1.75;;;;;;;12.26;100.00;100165.66;4988041;28;23799;-80
2022/12/31 11:09:43;;;;;;;6.70;1.40;;;;;;;12.30;100.00;100169.13;4996477;28;20042;-81
2022/12/31 11:12:31;;;;;;;7.75;1.98;;;;;;;12.34;100.00;100177.88;4966289;28;20049;-82
2022/12/31 11:15:20;;;;;;;1.55;1.10;;;;;;;12.38;100.00;100163.72;4993501;28;20066;-80
2022/12/31 11:18:09;;;;;;;2.63;1.60;;;;;;;12.40;100.00;100172.50;4982258;28;20053;-80
2022/12/31 11:20:57;;;;;;;3.78;1.52;;;;;;;12.40;100.00;100170.75;4993058;28;20050;-80
2022/12/31 11:23:37;;;;;;;6.82;1.80;;;;;;;12.42;100.00;100165.41;4977690;28;20046;-80
2022/12/31 11:26:26;;;;;;;4.88;1.75;;;;;;;12.44;100.00;100153.06;4965400;28;20045;-80
2022/12/31 11:28:58;;;;;;;5.55;2.00;;;;;;;12.49;100.00;100164.44;4982186;28;20046;-80
2022/12/31 11:31:49;;;;;;;7.38;1.83;;;;;;;12.53;100.00;100179.34;4971406;28;20038;-80
2022/12/31 11:34:22;;;;;;;6.85;2.13;;;;;;;12.56;100.00;100176.66;4990595;28;20665;-81
2022/12/31 11:37:16;;;;;;;5.25;2.17;;;;;;;12.61;100.00;100182.75;4993709;28;20042;-80
2022/12/31 11:39:43;;;;;;;8.05;1.70;;;;;;;12.64;100.00;100195.91;4979042;28;20050;-80
2022/12/31 11:42:31;;;;;;;10.48;4.40;;;;;;;12.65;100.00;100179.16;4971467;28;20045;-80
2022/12/31 11:45:11;;;;;;;8.32;1.65;;;;;;;12.69;100.00;100193.19;4976538;28;20511;-80
2022/12/31 11:47:57;;;;;;;12.35;2.90;;;;;;;12.69;100.00;100195.84;4964101;28;20047;-80
2022/12/31 11:50:47;;;;;;;10.32;2.30;;;;;;;12.69;100.00;100185.28;4987200;28;20492;-79
2022/12/31 11:53:56;;;;;;;10.50;2.17;;;;;;;12.66;100.00;100195.88;5001131;28;20038;-80
2022/12/31 11:56:30;;;;;;;7.93;2.08;;;;;;;12.62;100.00;100188.91;4980374;28;20055;-80
2022/12/31 11:58:57;;;;;;;10.20;2.03;;;;;;;12.58;100.00;100182.78;4999386;28;20050;-80
2022/12/31 12:01:32;;;;;;;5.03;1.52;;;;;;;12.59;100.00;100189.84;4966540;28;20042;-80
2022/12/31 12:04:02;;;;;;;6.68;1.90;;;;;;;12.58;100.00;100193.34;4991280;28;20042;-79
2022/12/31 12:06:31;;;;;;;11.63;1.77;;;;;;;12.58;100.00;100174.00;4993461;28;20048;-78
2022/12/31 12:09:09;;;;;;;7.95;1.85;;;;;;;12.56;100.00;100171.38;4991283;28;20054;-79
2022/12/31 12:11:38;;;;;;;6.22;1.42;;;;;;;12.58;100.00;100166.06;4967498;28;20175;-79
2022/12/31 12:14:28;;;;;;;9.25;1.48;;;;;;;12.59;100.00;100175.72;4978610;28;20042;-79
2022/12/31 12:16:57;;;;;;;7.03;2.13;;;;;;;12.59;100.00;100167.78;4989208;28;20054;-79